createdAt,value
2016-06-08T00:00:46.167Z,17.04
2016-06-08T00:01:46.171Z,17.04
2016-06-08T00:02:46.126Z,16.99
2016-06-08T00:03:46.113Z,17.05
2016-06-08T00:04:46.085Z,16.97
2016-06-08T00:05:46.072Z,17.01
2016-06-08T00:06:46.044Z,17.04
2016-06-08T00:07:46.030Z,17.01
2016-06-08T00:08:46.017Z,16.96
2016-06-08T00:09:45.989Z,16.91
2016-06-08T00:10:45.976Z,16.94
2016-06-08T00:11:45.947Z,17.02
2016-06-08T00:12:45.934Z,16.97
2016-06-08T00:13:45.905Z,16.91
2016-06-08T00:14:45.893Z,16.94
2016-06-08T00:15:45.880Z,16.96
2016-06-08T00:16:45.852Z,16.9
2016-06-08T00:17:45.838Z,16.96
2016-06-08T00:18:45.826Z,17.02
2016-06-08T00:19:45.796Z,17.01
2016-06-08T00:20:45.784Z,16.97
2016-06-08T00:21:45.756Z,16.96
2016-06-08T00:22:45.743Z,16.96
2016-06-08T00:23:45.714Z,16.96
2016-06-08T00:24:45.700Z,16.84
2016-06-08T00:25:45.688Z,16.86
2016-06-08T00:26:45.972Z,16.93
2016-06-08T00:27:45.647Z,16.9
2016-06-08T00:28:45.633Z,16.93
2016-06-08T00:29:45.605Z,16.91
2016-06-08T00:30:45.576Z,16.91
2016-06-08T00:31:45.564Z,16.91
2016-06-08T00:32:45.551Z,16.9
2016-06-08T00:33:45.538Z,16.86
2016-06-08T00:34:45.509Z,16.84
2016-06-08T00:35:45.480Z,16.94
2016-06-08T00:36:45.483Z,16.9
2016-06-08T00:37:45.455Z,16.91
2016-06-08T00:38:45.426Z,16.87
2016-06-08T00:39:45.414Z,16.84
2016-06-08T00:40:45.385Z,16.87
2016-06-08T00:41:45.372Z,16.84
2016-06-08T00:42:45.344Z,16.87
2016-06-08T00:43:45.330Z,16.86
2016-06-08T00:44:45.318Z,16.9
2016-06-08T00:45:45.288Z,16.86
2016-06-08T00:46:45.119Z,16.84
2016-06-08T00:47:45.263Z,16.84
2016-06-08T00:48:45.235Z,16.84
2016-06-08T00:49:45.221Z,16.87
2016-06-08T00:50:45.193Z,16.89
2016-06-08T00:51:45.179Z,16.86
2016-06-08T00:52:45.151Z,16.83
2016-06-08T00:53:45.138Z,16.84
2016-06-08T00:54:45.125Z,16.84
2016-06-08T00:55:45.098Z,16.83
2016-06-08T00:56:45.568Z,16.86
2016-06-08T00:57:45.056Z,16.76
2016-06-08T00:58:45.043Z,16.78
2016-06-08T00:59:45.014Z,16.79
2016-06-08T01:00:45.032Z,16.84
2016-06-08T01:01:44.972Z,16.89
2016-06-08T01:02:44.959Z,16.75
2016-06-08T01:03:44.947Z,16.83
2016-06-08T01:04:44.918Z,16.83
2016-06-08T01:05:44.905Z,16.79
2016-06-08T01:06:44.877Z,16.72
2016-06-08T01:07:44.863Z,16.68
2016-06-08T01:08:44.850Z,16.76
2016-06-08T01:09:44.838Z,16.76
2016-06-08T01:10:44.808Z,16.79
2016-06-08T01:11:45.406Z,16.76
2016-06-08T01:12:44.768Z,16.69
2016-06-08T01:13:44.739Z,16.74
2016-06-08T01:14:44.727Z,16.72
2016-06-08T01:15:44.713Z,16.79
2016-06-08T01:16:44.685Z,16.76
2016-06-08T01:17:44.671Z,16.76
2016-06-08T01:18:44.643Z,16.75
2016-06-08T01:19:44.630Z,16.74
2016-06-08T01:20:44.618Z,16.71
2016-06-08T01:21:44.588Z,16.76
2016-06-08T01:22:44.576Z,16.74
2016-06-08T01:23:44.548Z,16.74
2016-06-08T01:24:44.534Z,16.72
2016-06-08T01:25:44.506Z,16.78
2016-06-08T01:26:44.930Z,16.71
2016-06-08T01:27:44.324Z,16.75
2016-06-08T01:28:44.451Z,16.75
2016-06-08T01:29:44.439Z,16.71
2016-06-08T01:30:44.410Z,16.69
2016-06-08T01:31:44.397Z,16.68
2016-06-08T01:32:44.384Z,16.66
2016-06-08T01:33:44.355Z,16.71
2016-06-08T01:34:44.342Z,16.69
2016-06-08T01:35:44.314Z,16.64
2016-06-08T01:36:44.301Z,16.66
2016-06-08T01:37:44.272Z,16.66
2016-06-08T01:38:44.259Z,16.68
2016-06-08T01:39:44.246Z,16.66
2016-06-08T01:40:44.218Z,16.65
2016-06-08T01:41:44.205Z,16.66
2016-06-08T01:42:44.176Z,16.61
2016-06-08T01:43:44.008Z,16.66
2016-06-08T01:44:44.135Z,16.58
2016-06-08T01:45:44.122Z,16.58
2016-06-08T01:46:44.094Z,16.61
2016-06-08T01:47:44.080Z,16.58
2016-06-08T01:48:44.068Z,16.58
2016-06-08T01:49:44.054Z,16.66
2016-06-08T01:50:44.026Z,16.64
2016-06-08T01:51:44.013Z,16.61
2016-06-08T01:52:43.985Z,16.65
2016-06-08T01:53:43.971Z,16.57
2016-06-08T01:54:43.943Z,16.58
2016-06-08T01:55:43.929Z,16.68
2016-06-08T01:56:43.932Z,16.65
2016-06-08T01:57:44.514Z,16.65
2016-06-08T01:58:43.876Z,16.57
2016-06-08T01:59:43.848Z,16.64
2016-06-08T02:00:43.834Z,16.58
2016-06-08T02:01:43.806Z,16.58
2016-06-08T02:02:43.637Z,16.57
2016-06-08T02:03:43.764Z,16.57
2016-06-08T02:04:43.751Z,16.54
2016-06-08T02:05:43.722Z,16.65
2016-06-08T02:06:43.709Z,16.56
2016-06-08T02:07:43.697Z,16.57
2016-06-08T02:08:43.669Z,16.51
2016-06-08T02:09:43.655Z,16.58
2016-06-08T02:10:43.642Z,16.6
2016-06-08T02:11:43.644Z,16.65
2016-06-08T02:12:45.086Z,16.64
2016-06-08T02:13:43.572Z,16.56
2016-06-08T02:14:43.560Z,16.56
2016-06-08T02:15:43.531Z,16.54
2016-06-08T02:16:43.518Z,16.51
2016-06-08T02:17:43.489Z,16.46
2016-06-08T02:18:43.477Z,16.51
2016-06-08T02:19:43.463Z,16.51
2016-06-08T02:20:43.435Z,16.47
2016-06-08T02:21:43.421Z,16.42
2016-06-08T02:22:43.393Z,16.42
2016-06-08T02:23:43.380Z,16.46
2016-06-08T02:24:43.352Z,16.38
2016-06-08T02:25:43.354Z,16.41
2016-06-08T02:26:43.388Z,16.39
2016-06-08T02:27:43.828Z,16.39
2016-06-08T02:28:43.284Z,16.41
2016-06-08T02:29:43.256Z,16.38
2016-06-08T02:30:43.242Z,16.42
2016-06-08T02:31:43.215Z,16.38
2016-06-08T02:32:43.201Z,16.38
2016-06-08T02:33:43.173Z,16.35
2016-06-08T02:34:43.160Z,16.31
2016-06-08T02:35:43.147Z,16.31
2016-06-08T02:36:43.119Z,16.33
2016-06-08T02:37:43.090Z,16.39
2016-06-08T02:38:43.077Z,16.39
2016-06-08T02:39:43.064Z,16.29
2016-06-08T02:40:43.036Z,16.2
2016-06-08T02:41:43.022Z,16.28
2016-06-08T02:42:43.010Z,16.24
2016-06-08T02:43:42.980Z,16.24
2016-06-08T02:44:42.968Z,16.15
2016-06-08T02:45:42.940Z,16.35
2016-06-08T02:46:42.926Z,16.23
2016-06-08T02:47:42.899Z,16.28
2016-06-08T02:48:42.901Z,16.23
2016-06-08T02:49:42.872Z,16.21
2016-06-08T02:50:42.844Z,16.23
2016-06-08T02:51:42.830Z,16.2
2016-06-08T02:52:42.802Z,16.15
2016-06-08T02:53:42.790Z,16.31
2016-06-08T02:54:42.760Z,16.23
2016-06-08T02:55:42.748Z,16.24
2016-06-08T02:56:44.016Z,16.26
2016-06-08T02:57:43.034Z,16.29
2016-06-08T02:58:42.678Z,16.26
2016-06-08T02:59:42.664Z,16.12
2016-06-08T03:00:42.636Z,16.12
2016-06-08T03:01:42.624Z,16.12
2016-06-08T03:02:42.594Z,16.15
2016-06-08T03:03:42.582Z,16.15
2016-06-08T03:04:42.553Z,16.17
2016-06-08T03:05:42.540Z,16.17
2016-06-08T03:06:42.528Z,16.17
2016-06-08T03:07:42.498Z,16.21
2016-06-08T03:08:42.486Z,16.15
2016-06-08T03:09:42.458Z,16.15
2016-06-08T03:10:42.444Z,16.26
2016-06-08T03:11:42.416Z,16.26
2016-06-08T03:12:42.247Z,16.26
2016-06-08T03:13:42.374Z,16.24
2016-06-08T03:14:42.361Z,16.23
2016-06-08T03:15:42.348Z,16.23
2016-06-08T03:16:42.319Z,16.21
2016-06-08T03:17:42.308Z,16.16
2016-06-08T03:18:42.278Z,16.17
2016-06-08T03:19:42.266Z,16.31
2016-06-08T03:20:42.237Z,16.21
2016-06-08T03:21:42.224Z,16.24
2016-06-08T03:22:42.210Z,16.21
2016-06-08T03:23:42.198Z,16.24
2016-06-08T03:24:42.169Z,16.28
2016-06-08T03:25:42.141Z,16.26
2016-06-08T03:26:43.332Z,16.31
2016-06-08T03:27:42.162Z,16.17
2016-06-08T03:28:42.087Z,16.24
2016-06-08T03:29:42.057Z,16.32
2016-06-08T03:30:42.045Z,16.36
2016-06-08T03:31:42.031Z,16.26
2016-06-08T03:32:42.003Z,16.29
2016-06-08T03:33:41.991Z,16.29
2016-06-08T03:34:41.821Z,16.26
2016-06-08T03:35:41.949Z,16.35
2016-06-08T03:36:41.936Z,16.41
2016-06-08T03:37:41.908Z,16.42
2016-06-08T03:38:41.879Z,16.39
2016-06-08T03:39:41.866Z,16.41
2016-06-08T03:40:41.853Z,16.41
2016-06-08T03:41:41.825Z,16.42
2016-06-08T03:42:41.984Z,16.42
2016-06-08T03:43:41.799Z,16.49
2016-06-08T03:44:41.770Z,16.51
2016-06-08T03:45:41.742Z,16.54
2016-06-08T03:46:41.728Z,16.64
2016-06-08T03:47:41.730Z,16.56
2016-06-08T03:48:41.547Z,16.61
2016-06-08T03:49:41.690Z,16.65
2016-06-08T03:50:41.661Z,16.61
2016-06-08T03:51:41.632Z,16.72
2016-06-08T03:52:41.619Z,16.74
2016-06-08T03:53:41.591Z,16.72
2016-06-08T03:54:41.579Z,16.75
2016-06-08T03:55:41.565Z,16.74
2016-06-08T03:56:41.537Z,16.76
2016-06-08T03:57:41.523Z,16.71
2016-06-08T03:58:41.496Z,16.74
2016-06-08T03:59:41.483Z,16.81
2016-06-08T04:00:41.298Z,16.89
2016-06-08T04:01:41.440Z,16.87
2016-06-08T04:02:41.428Z,16.89
2016-06-08T04:03:41.399Z,16.93
2016-06-08T04:04:41.386Z,16.84
2016-06-08T04:05:41.358Z,16.97
2016-06-08T04:06:41.345Z,16.97
2016-06-08T04:07:41.317Z,16.94
2016-06-08T04:08:41.303Z,16.99
2016-06-08T04:09:41.290Z,16.97
2016-06-08T04:10:41.278Z,16.93
2016-06-08T04:11:41.249Z,16.97
2016-06-08T04:12:41.236Z,16.94
2016-06-08T04:13:41.222Z,17.06
2016-06-08T04:14:41.195Z,16.99
2016-06-08T04:15:41.167Z,16.96
2016-06-08T04:16:41.153Z,17.02
2016-06-08T04:17:41.140Z,16.99
2016-06-08T04:18:41.111Z,16.93
2016-06-08T04:19:41.099Z,16.99
2016-06-08T04:20:41.069Z,17.02
2016-06-08T04:21:41.057Z,17.06
2016-06-08T04:22:41.044Z,17.04
2016-06-08T04:23:41.016Z,17.08
2016-06-08T04:24:41.002Z,17.02
2016-06-08T04:25:40.990Z,17.04
2016-06-08T04:26:40.977Z,17.08
2016-06-08T04:27:41.635Z,17.02
2016-06-08T04:28:40.920Z,17.05
2016-06-08T04:29:40.906Z,17.09
2016-06-08T04:30:40.894Z,17.08
2016-06-08T04:31:40.882Z,17.09
2016-06-08T04:32:40.868Z,17.08
2016-06-08T04:33:40.840Z,17.12
2016-06-08T04:34:40.826Z,17.02
2016-06-08T04:35:40.798Z,17.08
2016-06-08T04:36:40.784Z,17.05
2016-06-08T04:37:40.756Z,17.09
2016-06-08T04:38:40.743Z,17.02
2016-06-08T04:39:40.575Z,17.06
2016-06-08T04:40:40.702Z,17.16
2016-06-08T04:41:40.689Z,17.19
2016-06-08T04:42:40.676Z,17.24
2016-06-08T04:43:40.647Z,17.2
2016-06-08T04:44:40.634Z,17.12
2016-06-08T04:45:40.621Z,17.16
2016-06-08T04:46:40.594Z,17.16
2016-06-08T04:47:40.597Z,17.16
2016-06-08T04:48:40.567Z,17.2
2016-06-08T04:49:40.538Z,17.29
2016-06-08T04:50:40.525Z,17.27
2016-06-08T04:51:40.653Z,17.27
2016-06-08T04:52:40.484Z,17.34
2016-06-08T04:53:40.722Z,17.26
2016-06-08T04:54:40.458Z,17.26
2016-06-08T04:55:40.430Z,17.23
2016-06-08T04:56:40.416Z,17.24
2016-06-08T04:57:40.310Z,17.29
2016-06-08T04:58:40.688Z,17.2
2016-06-08T04:59:40.362Z,17.3
2016-06-08T05:00:40.349Z,17.24
2016-06-08T05:01:40.320Z,17.29
2016-06-08T05:02:40.307Z,17.31
2016-06-08T05:03:40.296Z,17.31
2016-06-08T05:04:40.267Z,17.41
2016-06-08T05:05:40.254Z,17.39
2016-06-08T05:06:40.243Z,17.48
2016-06-08T05:07:40.225Z,17.41
2016-06-08T05:08:40.223Z,17.44
2016-06-08T05:09:40.220Z,17.44
2016-06-08T05:10:40.203Z,17.49
2016-06-08T05:11:40.197Z,17.44
2016-06-08T05:12:40.845Z,17.51
2016-06-08T05:13:40.366Z,17.52
2016-06-08T05:14:40.154Z,17.6
2016-06-08T05:15:40.145Z,17.57
2016-06-08T05:16:40.135Z,17.59
2016-06-08T05:17:40.108Z,17.6
2016-06-08T05:18:40.096Z,17.65
2016-06-08T05:19:40.085Z,17.71
2016-06-08T05:20:40.057Z,17.59
2016-06-08T05:21:40.046Z,17.68
2016-06-08T05:22:40.032Z,17.67
2016-06-08T05:23:40.021Z,17.72
2016-06-08T05:24:40.008Z,17.67
2016-06-08T05:25:39.980Z,17.72
2016-06-08T05:26:39.967Z,17.71
2016-06-08T05:27:40.220Z,17.71
2016-06-08T05:28:39.957Z,17.74
2016-06-08T05:29:39.914Z,17.71
2016-06-08T05:30:40.151Z,17.71
2016-06-08T05:31:39.873Z,17.76
2016-06-08T05:32:39.860Z,17.76
2016-06-08T05:33:39.847Z,17.68
2016-06-08T05:34:39.818Z,17.8
2016-06-08T05:35:39.806Z,17.79
2016-06-08T05:36:39.792Z,17.97
2016-06-08T05:37:39.624Z,17.85
2016-06-08T05:38:39.751Z,17.94
2016-06-08T05:39:39.737Z,18.05
2016-06-08T05:40:39.726Z,18.15
2016-06-08T05:41:39.697Z,18.16
2016-06-08T05:42:40.356Z,18.34
2016-06-08T05:43:39.514Z,18.5
2016-06-08T05:44:39.658Z,18.52
2016-06-08T05:45:39.645Z,18.55
2016-06-08T05:46:39.617Z,18.65
2016-06-08T05:47:39.603Z,18.55
2016-06-08T05:48:39.606Z,18.71
2016-06-08T05:49:39.578Z,18.7
2016-06-08T05:50:39.549Z,18.89
2016-06-08T05:51:39.599Z,18.81
2016-06-08T05:52:39.523Z,18.8
2016-06-08T05:53:39.510Z,18.86
2016-06-08T05:54:39.497Z,18.86
2016-06-08T05:55:39.468Z,18.86
2016-06-08T05:56:39.456Z,18.89
2016-06-08T05:57:39.896Z,18.92
2016-06-08T05:58:39.430Z,18.92
2016-06-08T05:59:39.416Z,18.89
2016-06-08T06:00:39.404Z,19.04
2016-06-08T06:01:39.376Z,19
2016-06-08T06:02:39.378Z,19.12
2016-06-08T06:03:39.349Z,19.15
2016-06-08T06:04:39.351Z,19.14
2016-06-08T06:05:39.324Z,19.09
2016-06-08T06:06:39.296Z,18.98
2016-06-08T06:07:39.282Z,19
2016-06-08T06:08:39.284Z,18.99
2016-06-08T06:09:39.256Z,19.04
2016-06-08T06:10:39.243Z,18.99
2016-06-08T06:11:39.230Z,19.15
2016-06-08T06:12:39.217Z,19.14
2016-06-08T06:13:39.189Z,19.12
2016-06-08T06:14:39.176Z,19.19
2016-06-08T06:15:39.164Z,19.15
2016-06-08T06:16:39.181Z,19.19
2016-06-08T06:17:39.137Z,19.15
2016-06-08T06:18:39.108Z,19.33
2016-06-08T06:19:39.111Z,19.41
2016-06-08T06:20:39.083Z,19.44
2016-06-08T06:21:39.069Z,19.45
2016-06-08T06:22:39.057Z,19.47
2016-06-08T06:23:39.044Z,19.52
2016-06-08T06:24:39.031Z,19.64
2016-06-08T06:25:39.049Z,19.64
2016-06-08T06:26:39.005Z,19.81
2016-06-08T06:27:39.836Z,19.89
2016-06-08T06:28:39.213Z,19.92
2016-06-08T06:29:38.966Z,19.94
2016-06-08T06:30:38.937Z,19.99
2016-06-08T06:31:38.924Z,20
2016-06-08T06:32:38.913Z,20.09
2016-06-08T06:33:38.899Z,20.03
2016-06-08T06:34:38.885Z,20.07
2016-06-08T06:35:38.874Z,19.96
2016-06-08T06:36:38.860Z,19.99
2016-06-08T06:37:38.848Z,19.94
2016-06-08T06:38:38.834Z,19.96
2016-06-08T06:39:38.837Z,20.07
2016-06-08T06:40:38.809Z,20.18
2016-06-08T06:41:38.795Z,20.21
2016-06-08T06:42:38.814Z,20.19
2016-06-08T06:43:38.817Z,20.22
2016-06-08T06:44:38.757Z,20.1
2016-06-08T06:45:38.728Z,20.18
2016-06-08T06:46:38.887Z,20.19
2016-06-08T06:47:38.703Z,20.19
2016-06-08T06:48:38.689Z,20.28
2016-06-08T06:49:38.692Z,20.34
2016-06-08T06:50:38.663Z,20.39
2016-06-08T06:51:38.650Z,20.5
2016-06-08T06:52:38.638Z,20.41
2016-06-08T06:53:38.641Z,20.56
2016-06-08T06:54:38.612Z,20.67
2016-06-08T06:55:38.599Z,20.52
2016-06-08T06:56:38.602Z,20.6
2016-06-08T06:57:38.979Z,20.55
2016-06-08T06:58:38.872Z,20.51
2016-06-08T06:59:38.547Z,20.48
2016-06-08T07:00:38.534Z,20.55
2016-06-08T07:01:38.521Z,20.44
2016-06-08T07:02:38.508Z,20.56
2016-06-08T07:03:38.496Z,20.5
2016-06-08T07:04:38.499Z,20.36
2016-06-08T07:05:38.468Z,20.55
2016-06-08T07:06:38.457Z,20.65
2016-06-08T07:07:38.444Z,20.74
2016-06-08T07:08:38.431Z,20.82
2016-06-08T07:09:38.418Z,20.96
2016-06-08T07:10:38.404Z,21.07
2016-06-08T07:11:38.392Z,21.14
2016-06-08T07:12:38.379Z,21.09
2016-06-08T07:13:39.147Z,21.14
2016-06-08T07:14:38.353Z,21.12
2016-06-08T07:15:38.355Z,21.09
2016-06-08T07:16:38.342Z,21.25
2016-06-08T07:17:38.331Z,21.24
2016-06-08T07:18:38.301Z,21.4
2016-06-08T07:19:38.388Z,21.42
2016-06-08T07:20:38.295Z,21.55
2016-06-08T07:21:38.331Z,21.48
2016-06-08T07:22:38.256Z,21.62
2016-06-08T07:23:38.309Z,21.64
2016-06-08T07:24:38.216Z,21.77
2016-06-08T07:25:38.250Z,21.85
2016-06-08T07:26:38.206Z,22.04
2016-06-08T07:27:38.193Z,22.08
2016-06-08T07:28:38.181Z,22.22
2016-06-08T07:29:38.027Z,22.28
2016-06-08T07:30:38.170Z,22.28
2016-06-08T07:31:38.172Z,22.28
2016-06-08T07:32:38.144Z,22.36
2016-06-08T07:33:38.194Z,22.23
2016-06-08T07:34:38.134Z,22.38
2016-06-08T07:35:38.111Z,22.45
2016-06-08T07:36:38.098Z,22.32
2016-06-08T07:37:38.101Z,22.38
2016-06-08T07:38:38.089Z,22.32
2016-06-08T07:39:38.075Z,22.41
2016-06-08T07:40:38.062Z,22.29
2016-06-08T07:41:38.055Z,22.3
2016-06-08T07:42:38.041Z,22.35
2016-06-08T07:43:38.044Z,22.28
2016-06-08T07:44:38.016Z,22.35
2016-06-08T07:45:38.002Z,22.44
2016-06-08T07:46:38.005Z,22.59
2016-06-08T07:47:37.992Z,22.8
2016-06-08T07:48:37.838Z,22.85
2016-06-08T07:49:37.966Z,22.96
2016-06-08T07:50:37.797Z,23.08
2016-06-08T07:51:37.951Z,23.15
2016-06-08T07:52:37.938Z,23.23
2016-06-08T07:53:37.926Z,23.23
2016-06-08T07:54:38.224Z,23.24
2016-06-08T07:55:37.915Z,23.34
2016-06-08T07:56:37.904Z,23.43
2016-06-08T07:57:37.891Z,23.39
2016-06-08T07:58:37.894Z,23.51
2016-06-08T07:59:37.865Z,23.59
2016-06-08T08:00:37.867Z,23.68
2016-06-08T08:01:37.855Z,23.66
2016-06-08T08:02:37.842Z,23.71
2016-06-08T08:03:37.845Z,23.73
2016-06-08T08:04:37.831Z,23.71
2016-06-08T08:05:37.819Z,23.73
2016-06-08T08:06:37.806Z,23.8
2016-06-08T08:07:37.809Z,23.78
2016-06-08T08:08:37.797Z,23.69
2016-06-08T08:09:37.783Z,23.73
2016-06-08T08:10:37.786Z,23.93
2016-06-08T08:11:37.775Z,24.2
2016-06-08T08:12:37.763Z,24.33
2016-06-08T08:13:37.766Z,24.45
2016-06-08T08:14:37.760Z,24.66
2016-06-08T08:15:37.747Z,24.86
2016-06-08T08:16:37.734Z,25.06
2016-06-08T08:17:37.783Z,25.16
2016-06-08T08:18:37.724Z,25.32
2016-06-08T08:19:37.711Z,25.33
2016-06-08T08:20:37.698Z,25.23
2016-06-08T08:21:37.701Z,25.07
2016-06-08T08:22:37.687Z,24.99
2016-06-08T08:23:37.675Z,24.99
2016-06-08T08:24:37.678Z,25.06
2016-06-08T08:25:37.664Z,25.1
2016-06-08T08:26:37.683Z,25.11
2016-06-08T08:27:37.654Z,25.31
2016-06-08T08:28:37.657Z,25.31
2016-06-08T08:29:37.488Z,25.41
2016-06-08T08:30:37.631Z,25.46
2016-06-08T08:31:37.634Z,25.59
2016-06-08T08:32:37.620Z,25.81
2016-06-08T08:33:37.608Z,25.88
2016-06-08T08:34:37.626Z,25.8
2016-06-08T08:35:37.738Z,25.75
2016-06-08T08:36:37.866Z,25.77
2016-06-08T08:37:37.603Z,25.84
2016-06-08T08:38:37.575Z,25.78
2016-06-08T08:39:37.578Z,25.9
2016-06-08T08:40:37.564Z,25.87
2016-06-08T08:41:37.567Z,25.87
2016-06-08T08:42:37.555Z,25.87
2016-06-08T08:43:37.823Z,25.75
2016-06-08T08:44:37.403Z,25.65
2016-06-08T08:45:37.547Z,25.58
2016-06-08T08:46:37.752Z,25.58
2016-06-08T08:47:37.599Z,25.7
2016-06-08T08:48:37.616Z,25.77
2016-06-08T08:49:37.635Z,25.85
2016-06-08T08:50:37.529Z,25.9
2016-06-08T08:51:37.515Z,25.99
2016-06-08T08:52:37.502Z,26.06
2016-06-08T08:53:37.505Z,26.03
2016-06-08T08:54:37.476Z,25.9
2016-06-08T08:55:37.479Z,25.73
2016-06-08T08:56:37.467Z,25.83
2016-06-08T08:57:37.470Z,25.78
2016-06-08T08:58:37.316Z,25.8
2016-06-08T08:59:38.163Z,25.7
2016-06-08T09:00:37.445Z,25.75
2016-06-08T09:01:37.465Z,25.65
2016-06-08T09:02:37.312Z,25.68
2016-06-08T09:03:37.423Z,25.5
2016-06-08T09:04:37.567Z,25.58
2016-06-08T09:05:37.412Z,25.69
2016-06-08T09:06:37.447Z,25.72
2016-06-08T09:07:37.403Z,25.73
2016-06-08T09:08:37.405Z,25.78
2016-06-08T09:09:37.392Z,25.72
2016-06-08T09:10:37.380Z,25.87
2016-06-08T09:11:37.382Z,25.77
2016-06-08T09:12:37.369Z,25.85
2016-06-08T09:13:37.559Z,25.75
2016-06-08T09:14:37.359Z,25.63
2016-06-08T09:15:37.361Z,25.62
2016-06-08T09:16:37.349Z,25.58
2016-06-08T09:17:37.336Z,25.55
2016-06-08T09:18:37.338Z,25.65
2016-06-08T09:19:37.325Z,25.68
2016-06-08T09:20:37.328Z,25.69
2016-06-08T09:21:37.316Z,25.69
2016-06-08T09:22:37.318Z,25.58
2016-06-08T09:23:37.196Z,25.54
2016-06-08T09:24:37.292Z,25.48
2016-06-08T09:25:37.295Z,25.29
2016-06-08T09:26:37.282Z,25.26
2016-06-08T09:27:37.285Z,25.25
2016-06-08T09:28:37.271Z,25.17
2016-06-08T09:29:37.523Z,25.13
2016-06-08T09:30:37.137Z,25.01
2016-06-08T09:31:37.248Z,25.01
2016-06-08T09:32:37.251Z,24.86
2016-06-08T09:33:37.237Z,24.84
2016-06-08T09:34:37.225Z,24.91
2016-06-08T09:35:37.228Z,24.91
2016-06-08T09:36:37.214Z,25.01
2016-06-08T09:37:37.217Z,24.99
2016-06-08T09:38:37.220Z,24.93
2016-06-08T09:39:37.192Z,24.95
2016-06-08T09:40:37.195Z,25.07
2016-06-08T09:41:37.228Z,25.25
2016-06-08T09:42:37.231Z,25.31
2016-06-08T09:43:37.172Z,25.6
2016-06-08T09:44:37.393Z,25.63
2016-06-08T09:45:37.020Z,25.78
2016-06-08T09:46:37.148Z,25.85
2016-06-08T09:47:37.150Z,25.9
2016-06-08T09:48:37.169Z,25.99
2016-06-08T09:49:37.125Z,26.06
2016-06-08T09:50:37.127Z,26.19
2016-06-08T09:51:37.161Z,26.25
2016-06-08T09:52:36.960Z,26.4
2016-06-08T09:53:37.105Z,26.55
2016-06-08T09:54:37.091Z,26.31
2016-06-08T09:55:37.094Z,26.09
2016-06-08T09:56:37.081Z,26.03
2016-06-08T09:57:36.927Z,26.1
2016-06-08T09:58:37.071Z,26.09
2016-06-08T09:59:37.073Z,26
2016-06-08T10:00:37.060Z,26.19
2016-06-08T10:01:37.063Z,26.36
2016-06-08T10:02:37.066Z,26.47
2016-06-08T10:03:37.053Z,26.45
2016-06-08T10:04:37.103Z,26.52
2016-06-08T10:05:37.043Z,26.55
2016-06-08T10:06:37.031Z,26.58
2016-06-08T10:07:37.034Z,26.58
2016-06-08T10:08:37.019Z,26.65
2016-06-08T10:09:37.023Z,26.56
2016-06-08T10:10:37.025Z,26.47
2016-06-08T10:11:37.012Z,26.45
2016-06-08T10:12:37.015Z,26.45
2016-06-08T10:13:37.002Z,26.52
2016-06-08T10:14:37.005Z,26.6
2016-06-08T10:15:36.992Z,26.66
2016-06-08T10:16:36.995Z,26.77
2016-06-08T10:17:36.841Z,26.74
2016-06-08T10:18:36.983Z,26.85
2016-06-08T10:19:36.971Z,26.89
2016-06-08T10:20:36.974Z,26.89
2016-06-08T10:21:36.977Z,26.84
2016-06-08T10:22:36.963Z,26.81
2016-06-08T10:23:36.966Z,26.85
2016-06-08T10:24:36.968Z,27
2016-06-08T10:25:36.940Z,27.07
2016-06-08T10:26:36.943Z,27.1
2016-06-08T10:27:36.993Z,26.99
2016-06-08T10:28:36.933Z,26.92
2016-06-08T10:29:37.201Z,27.05
2016-06-08T10:30:36.938Z,27.03
2016-06-08T10:31:36.940Z,27.25
2016-06-08T10:32:36.913Z,27.35
2016-06-08T10:33:36.931Z,27.21
2016-06-08T10:34:36.918Z,27.14
2016-06-08T10:35:36.904Z,27.1
2016-06-08T10:36:36.907Z,27.12
2016-06-08T10:37:36.739Z,27.15
2016-06-08T10:38:36.882Z,27.32
2016-06-08T10:39:36.884Z,27.18
2016-06-08T10:40:36.903Z,27.17
2016-06-08T10:41:36.875Z,27.12
2016-06-08T10:42:36.923Z,26.9
2016-06-08T10:43:36.864Z,26.9
2016-06-08T10:44:36.742Z,26.96
2016-06-08T10:45:36.869Z,27.03
2016-06-08T10:46:36.950Z,27.08
2016-06-08T10:47:36.843Z,27.07
2016-06-08T10:48:36.846Z,27.22
2016-06-08T10:49:36.833Z,27.33
2016-06-08T10:50:36.852Z,27.35
2016-06-08T10:51:36.838Z,27.29
2016-06-08T10:52:37.154Z,27.22
2016-06-08T10:53:36.828Z,27.08
2016-06-08T10:54:36.816Z,27.1
2016-06-08T10:55:36.818Z,27.05
2016-06-08T10:56:36.804Z,27.15
2016-06-08T10:57:36.807Z,27.42
2016-06-08T10:58:36.795Z,27.59
2016-06-08T10:59:36.813Z,27.45
2016-06-08T11:00:36.785Z,27.39
2016-06-08T11:01:36.788Z,27.63
2016-06-08T11:02:36.806Z,27.77
2016-06-08T11:03:36.777Z,27.85
2016-06-08T11:04:36.779Z,27.65
2016-06-08T11:05:36.782Z,27.45
2016-06-08T11:06:36.770Z,27.33
2016-06-08T11:07:36.757Z,27.22
2016-06-08T11:08:36.759Z,27.21
2016-06-08T11:09:36.746Z,27.45
2016-06-08T11:10:36.748Z,27.65
2016-06-08T11:11:36.751Z,27.67
2016-06-08T11:12:36.739Z,27.73
2016-06-08T11:13:36.616Z,27.82
2016-06-08T11:14:37.806Z,27.92
2016-06-08T11:15:36.731Z,27.8
2016-06-08T11:16:36.718Z,27.71
2016-06-08T11:17:36.721Z,27.48
2016-06-08T11:18:36.708Z,27.36
2016-06-08T11:19:36.710Z,27.37
2016-06-08T11:20:36.714Z,27.52
2016-06-08T11:21:36.764Z,27.73
2016-06-08T11:22:36.702Z,27.64
2016-06-08T11:23:36.691Z,27.67
2016-06-08T11:24:36.693Z,27.65
2016-06-08T11:25:36.680Z,27.64
2016-06-08T11:26:36.683Z,27.64
2016-06-08T11:27:36.685Z,27.8
2016-06-08T11:28:36.672Z,27.7
2016-06-08T11:29:37.550Z,27.39
2016-06-08T11:30:36.724Z,27.17
2016-06-08T11:31:36.696Z,27.11
2016-06-08T11:32:36.715Z,27.1
2016-06-08T11:33:36.654Z,27.1
2016-06-08T11:34:36.673Z,27.11
2016-06-08T11:35:36.645Z,27.15
2016-06-08T11:36:36.631Z,26.96
2016-06-08T11:37:36.634Z,26.96
2016-06-08T11:38:36.620Z,27.02
2016-06-08T11:39:36.639Z,27.15
2016-06-08T11:40:36.612Z,27.29
2016-06-08T11:41:36.629Z,27.27
2016-06-08T11:42:36.617Z,27.54
2016-06-08T11:43:36.447Z,27.82
2016-06-08T11:44:37.075Z,28.05
2016-06-08T11:45:36.437Z,28
2016-06-08T11:46:36.596Z,28.1
2016-06-08T11:47:36.598Z,28.42
2016-06-08T11:48:36.601Z,28.63
2016-06-08T11:49:36.588Z,28.93
2016-06-08T11:50:36.435Z,28.91
2016-06-08T11:51:36.578Z,28.91
2016-06-08T11:52:36.596Z,29.19
2016-06-08T11:53:36.568Z,29.23
2016-06-08T11:54:36.586Z,29.13
2016-06-08T11:55:36.557Z,29.01
2016-06-08T11:56:36.577Z,28.86
2016-06-08T11:57:36.563Z,28.78
2016-06-08T11:58:36.409Z,28.66
2016-06-08T11:59:36.568Z,28.44
2016-06-08T12:00:37.133Z,28.29
2016-06-08T12:01:36.557Z,28.12
2016-06-08T12:02:36.389Z,27.96
2016-06-08T12:03:36.391Z,27.71
2016-06-08T12:04:36.534Z,27.52
2016-06-08T12:05:36.538Z,27.44
2016-06-08T12:06:36.524Z,27.51
2016-06-08T12:07:36.527Z,27.6
2016-06-08T12:08:36.515Z,27.44
2016-06-08T12:09:36.517Z,27.48
2016-06-08T12:10:36.504Z,27.32
2016-06-08T12:11:36.507Z,27.3
2016-06-08T12:12:37.978Z,27.32
2016-06-08T12:13:36.497Z,27.39
2016-06-08T12:14:36.484Z,27.35
2016-06-08T12:15:36.486Z,27.29
2016-06-08T12:16:36.473Z,27.07
2016-06-08T12:17:36.320Z,27.1
2016-06-08T12:18:36.322Z,27
2016-06-08T12:19:36.466Z,26.95
2016-06-08T12:20:36.452Z,26.89
2016-06-08T12:21:36.502Z,26.81
2016-06-08T12:22:36.442Z,26.7
2016-06-08T12:23:36.430Z,26.68
2016-06-08T12:24:36.432Z,26.62
2016-06-08T12:25:36.419Z,26.59
2016-06-08T12:26:36.422Z,26.75
2016-06-08T12:27:36.269Z,26.7
2016-06-08T12:28:36.413Z,26.68
2016-06-08T12:29:36.711Z,26.68
2016-06-08T12:30:36.401Z,26.77
2016-06-08T12:31:36.389Z,26.8
2016-06-08T12:32:36.391Z,26.8
2016-06-08T12:33:36.379Z,26.78
2016-06-08T12:34:36.381Z,26.89
2016-06-08T12:35:36.368Z,27
2016-06-08T12:36:36.465Z,27.12
2016-06-08T12:37:36.357Z,27.25
2016-06-08T12:38:36.360Z,27.27
2016-06-08T12:39:36.379Z,27.64
2016-06-08T12:40:36.350Z,27.73
2016-06-08T12:41:36.350Z,27.87
2016-06-08T12:42:36.337Z,28.08
2016-06-08T12:43:36.340Z,28.12
2016-06-08T12:44:36.343Z,27.93
2016-06-08T12:45:36.330Z,28.07
2016-06-08T12:46:36.333Z,28.22
2016-06-08T12:47:36.320Z,28.49
2016-06-08T12:48:36.322Z,28.74
2016-06-08T12:49:36.325Z,28.62
2016-06-08T12:50:36.312Z,28.57
2016-06-08T12:51:36.314Z,28.56
2016-06-08T12:52:36.317Z,28.67
2016-06-08T12:53:36.320Z,28.62
2016-06-08T12:54:36.322Z,28.63
2016-06-08T12:55:36.310Z,28.63